sensor_id;sensor_type;location;lat;lon;timestamp;P1;durP1;ratioP1;P2;durP2;ratioP2
8978;SDS011;4524;51.364;5.448;2022-12-07T00:01:18;11.20;;;7.67;;
8978;SDS011;4524;51.364;5.448;2022-12-07T00:03:50;12.57;;;9.47;;
8978;SDS011;4524;51.364;5.448;2022-12-07T00:06:19;15.30;;;9.83;;
8978;SDS011;4524;51.364;5.448;2022-12-07T00:08:49;11.60;;;9.80;;
8978;SDS011;4524;51.364;5.448;2022-12-07T00:11:18;10.33;;;7.70;;
8978;SDS011;4524;51.364;5.448;2022-12-07T00:13:47;14.37;;;9.23;;
8978;SDS011;4524;51.364;5.448;2022-12-07T00:16:20;12.07;;;9.23;;
8978;SDS011;4524;51.364;5.448;2022-12-07T00:18:49;11.50;;;7.40;;
8978;SDS011;4524;51.364;5.448;2022-12-07T00:21:18;11.03;;;8.30;;
8978;SDS011;4524;51.364;5.448;2022-12-07T00:23:49;12.60;;;8.20;;
8978;SDS011;4524;51.364;5.448;2022-12-07T00:26:18;11.57;;;9.40;;
8978;SDS011;4524;51.364;5.448;2022-12-07T00:28:48;11.83;;;8.03;;
8978;SDS011;4524;51.364;5.448;2022-12-07T00:31:17;13.23;;;9.77;;
8978;SDS011;4524;51.364;5.448;2022-12-07T00:33:47;8.87;;;7.60;;
8978;SDS011;4524;51.364;5.448;2022-12-07T00:36:16;8.83;;;7.30;;
8978;SDS011;4524;51.364;5.448;2022-12-07T00:38:53;13.47;;;10.10;;
8978;SDS011;4524;51.364;5.448;2022-12-07T00:41:22;12.93;;;8.17;;
8978;SDS011;4524;51.364;5.448;2022-12-07T00:43:51;13.13;;;9.33;;
8978;SDS011;4524;51.364;5.448;2022-12-07T00:46:19;10.07;;;8.60;;
8978;SDS011;4524;51.364;5.448;2022-12-07T00:48:50;11.50;;;8.23;;
8978;SDS011;4524;51.364;5.448;2022-12-07T00:51:20;11.53;;;7.87;;
8978;SDS011;4524;51.364;5.448;2022-12-07T00:53:49;10.10;;;7.50;;
8978;SDS011;4524;51.364;5.448;2022-12-07T00:56:20;11.40;;;8.70;;
8978;SDS011;4524;51.364;5.448;2022-12-07T00:58:49;13.63;;;8.87;;
8978;SDS011;4524;51.364;5.448;2022-12-07T01:01:19;10.13;;;9.03;;
8978;SDS011;4524;51.364;5.448;2022-12-07T01:03:47;9.87;;;8.40;;
8978;SDS011;4524;51.364;5.448;2022-12-07T01:06:15;12.83;;;9.20;;
8978;SDS011;4524;51.364;5.448;2022-12-07T01:08:44;14.53;;;10.93;;
8978;SDS011;4524;51.364;5.448;2022-12-07T01:11:13;12.23;;;8.97;;
8978;SDS011;4524;51.364;5.448;2022-12-07T01:13:44;17.37;;;10.50;;
8978;SDS011;4524;51.364;5.448;2022-12-07T01:16:13;11.13;;;8.30;;
8978;SDS011;4524;51.364;5.448;2022-12-07T01:18:45;8.07;;;7.07;;
8978;SDS011;4524;51.364;5.448;2022-12-07T01:21:15;14.03;;;9.13;;
8978;SDS011;4524;51.364;5.448;2022-12-07T01:23:45;10.90;;;8.27;;
8978;SDS011;4524;51.364;5.448;2022-12-07T01:26:14;10.33;;;8.30;;
8978;SDS011;4524;51.364;5.448;2022-12-07T01:28:45;13.30;;;9.17;;
8978;SDS011;4524;51.364;5.448;2022-12-07T01:31:13;11.10;;;8.17;;
8978;SDS011;4524;51.364;5.448;2022-12-07T01:33:44;11.17;;;8.30;;
8978;SDS011;4524;51.364;5.448;2022-12-07T01:36:14;11.87;;;8.67;;
8978;SDS011;4524;51.364;5.448;2022-12-07T01:38:44;11.73;;;8.93;;
8978;SDS011;4524;51.364;5.448;2022-12-07T01:41:13;11.83;;;9.03;;
8978;SDS011;4524;51.364;5.448;2022-12-07T01:46:36;9.87;;;8.47;;
8978;SDS011;4524;51.364;5.448;2022-12-07T01:49:05;9.67;;;7.10;;
8978;SDS011;4524;51.364;5.448;2022-12-07T01:51:36;14.60;;;8.37;;
8978;SDS011;4524;51.364;5.448;2022-12-07T01:54:06;8.77;;;7.30;;
8978;SDS011;4524;51.364;5.448;2022-12-07T01:56:34;9.27;;;7.27;;
8978;SDS011;4524;51.364;5.448;2022-12-07T01:59:03;10.27;;;8.53;;
8978;SDS011;4524;51.364;5.448;2022-12-07T02:01:32;12.40;;;8.73;;
8978;SDS011;4524;51.364;5.448;2022-12-07T02:04:00;8.33;;;6.57;;
8978;SDS011;4524;51.364;5.448;2022-12-07T02:06:29;11.23;;;8.47;;
8978;SDS011;4524;51.364;5.448;2022-12-07T02:08:57;14.77;;;9.90;;
8978;SDS011;4524;51.364;5.448;2022-12-07T02:11:25;14.50;;;9.93;;
8978;SDS011;4524;51.364;5.448;2022-12-07T02:13:53;7.47;;;6.77;;
8978;SDS011;4524;51.364;5.448;2022-12-07T02:16:25;9.43;;;7.83;;
8978;SDS011;4524;51.364;5.448;2022-12-07T02:19:03;10.67;;;7.67;;
8978;SDS011;4524;51.364;5.448;2022-12-07T02:21:50;11.00;;;8.03;;
8978;SDS011;4524;51.364;5.448;2022-12-07T02:24:25;10.93;;;7.23;;
8978;SDS011;4524;51.364;5.448;2022-12-07T02:27:10;9.20;;;7.47;;
8978;SDS011;4524;51.364;5.448;2022-12-07T02:29:54;7.40;;;6.50;;
8978;SDS011;4524;51.364;5.448;2022-12-07T02:32:27;7.73;;;6.83;;
8978;SDS011;4524;51.364;5.448;2022-12-07T02:35:06;23.33;;;6.97;;
8978;SDS011;4524;51.364;5.448;2022-12-07T02:37:39;8.10;;;6.70;;
8978;SDS011;4524;51.364;5.448;2022-12-07T02:40:14;8.13;;;6.20;;
8978;SDS011;4524;51.364;5.448;2022-12-07T02:42:47;9.87;;;8.03;;
8978;SDS011;4524;51.364;5.448;2022-12-07T02:45:21;9.70;;;7.80;;
8978;SDS011;4524;51.364;5.448;2022-12-07T02:47:51;8.60;;;6.73;;
8978;SDS011;4524;51.364;5.448;2022-12-07T02:50:24;9.40;;;6.93;;
8978;SDS011;4524;51.364;5.448;2022-12-07T02:52:54;11.07;;;6.30;;
8978;SDS011;4524;51.364;5.448;2022-12-07T02:55:23;14.83;;;8.23;;
8978;SDS011;4524;51.364;5.448;2022-12-07T02:58:06;7.47;;;6.20;;
8978;SDS011;4524;51.364;5.448;2022-12-07T03:00:48;8.83;;;6.73;;
8978;SDS011;4524;51.364;5.448;2022-12-07T03:03:22;7.33;;;5.33;;
8978;SDS011;4524;51.364;5.448;2022-12-07T03:05:59;8.37;;;5.40;;
8978;SDS011;4524;51.364;5.448;2022-12-07T03:08:39;7.33;;;5.93;;
8978;SDS011;4524;51.364;5.448;2022-12-07T03:11:14;7.50;;;6.07;;
8978;SDS011;4524;51.364;5.448;2022-12-07T03:13:48;7.83;;;5.47;;
8978;SDS011;4524;51.364;5.448;2022-12-07T03:16:24;8.97;;;6.07;;
8978;SDS011;4524;51.364;5.448;2022-12-07T03:18:55;9.50;;;6.00;;
8978;SDS011;4524;51.364;5.448;2022-12-07T03:21:26;7.57;;;5.93;;
8978;SDS011;4524;51.364;5.448;2022-12-07T03:23:58;9.33;;;6.40;;
8978;SDS011;4524;51.364;5.448;2022-12-07T03:26:31;6.10;;;5.10;;
8978;SDS011;4524;51.364;5.448;2022-12-07T03:29:03;6.57;;;5.73;;
8978;SDS011;4524;51.364;5.448;2022-12-07T03:31:36;6.50;;;5.67;;
8978;SDS011;4524;51.364;5.448;2022-12-07T03:34:08;7.37;;;4.83;;
8978;SDS011;4524;51.364;5.448;2022-12-07T03:36:43;6.90;;;4.73;;
8978;SDS011;4524;51.364;5.448;2022-12-07T03:39:17;8.30;;;5.23;;
8978;SDS011;4524;51.364;5.448;2022-12-07T03:41:50;8.40;;;5.87;;
8978;SDS011;4524;51.364;5.448;2022-12-07T03:44:18;8.67;;;4.83;;
8978;SDS011;4524;51.364;5.448;2022-12-07T03:46:50;6.87;;;4.97;;
8978;SDS011;4524;51.364;5.448;2022-12-07T03:49:26;7.20;;;5.20;;
8978;SDS011;4524;51.364;5.448;2022-12-07T03:52:00;7.23;;;5.23;;
8978;SDS011;4524;51.364;5.448;2022-12-07T03:54:36;7.87;;;5.17;;
8978;SDS011;4524;51.364;5.448;2022-12-07T03:57:08;10.57;;;5.73;;
8978;SDS011;4524;51.364;5.448;2022-12-07T03:59:38;8.37;;;4.77;;
8978;SDS011;4524;51.364;5.448;2022-12-07T04:02:09;6.90;;;4.37;;
8978;SDS011;4524;51.364;5.448;2022-12-07T04:04:40;5.93;;;4.30;;
8978;SDS011;4524;51.364;5.448;2022-12-07T04:07:10;7.33;;;5.47;;
8978;SDS011;4524;51.364;5.448;2022-12-07T04:09:39;9.40;;;6.50;;
8978;SDS011;4524;51.364;5.448;2022-12-07T04:12:07;5.67;;;3.90;;
8978;SDS011;4524;51.364;5.448;2022-12-07T04:14:35;9.30;;;5.17;;
8978;SDS011;4524;51.364;5.448;2022-12-07T04:17:03;9.20;;;5.07;;
8978;SDS011;4524;51.364;5.448;2022-12-07T04:19:33;6.97;;;5.47;;
8978;SDS011;4524;51.364;5.448;2022-12-07T04:22:02;8.13;;;5.40;;
8978;SDS011;4524;51.364;5.448;2022-12-07T04:24:31;5.00;;;4.50;;
8978;SDS011;4524;51.364;5.448;2022-12-07T04:27:00;8.87;;;5.23;;
8978;SDS011;4524;51.364;5.448;2022-12-07T04:29:28;7.07;;;5.03;;
8978;SDS011;4524;51.364;5.448;2022-12-07T04:31:56;6.07;;;4.37;;
8978;SDS011;4524;51.364;5.448;2022-12-07T04:34:24;7.27;;;4.87;;
8978;SDS011;4524;51.364;5.448;2022-12-07T04:36:53;7.77;;;5.57;;
8978;SDS011;4524;51.364;5.448;2022-12-07T04:39:22;7.77;;;5.00;;
8978;SDS011;4524;51.364;5.448;2022-12-07T04:41:51;7.87;;;4.83;;
8978;SDS011;4524;51.364;5.448;2022-12-07T04:44:20;5.30;;;4.63;;
8978;SDS011;4524;51.364;5.448;2022-12-07T04:46:48;6.63;;;4.10;;
8978;SDS011;4524;51.364;5.448;2022-12-07T04:49:17;6.40;;;3.70;;
8978;SDS011;4524;51.364;5.448;2022-12-07T04:51:46;7.27;;;4.90;;
8978;SDS011;4524;51.364;5.448;2022-12-07T04:54:16;4.50;;;4.03;;
8978;SDS011;4524;51.364;5.448;2022-12-07T04:56:44;8.90;;;4.90;;
8978;SDS011;4524;51.364;5.448;2022-12-07T04:59:12;5.23;;;4.70;;
8978;SDS011;4524;51.364;5.448;2022-12-07T05:01:42;11.63;;;5.07;;
8978;SDS011;4524;51.364;5.448;2022-12-07T05:04:11;6.70;;;4.47;;
8978;SDS011;4524;51.364;5.448;2022-12-07T05:06:39;6.83;;;3.40;;
8978;SDS011;4524;51.364;5.448;2022-12-07T05:09:07;6.10;;;4.17;;
8978;SDS011;4524;51.364;5.448;2022-12-07T05:11:36;5.17;;;4.10;;
8978;SDS011;4524;51.364;5.448;2022-12-07T05:14:09;7.27;;;4.10;;
8978;SDS011;4524;51.364;5.448;2022-12-07T05:16:39;6.93;;;4.50;;
8978;SDS011;4524;51.364;5.448;2022-12-07T05:19:08;8.23;;;4.87;;
8978;SDS011;4524;51.364;5.448;2022-12-07T05:21:37;8.13;;;5.60;;
8978;SDS011;4524;51.364;5.448;2022-12-07T05:24:06;8.70;;;4.73;;
8978;SDS011;4524;51.364;5.448;2022-12-07T05:26:34;5.70;;;4.23;;
8978;SDS011;4524;51.364;5.448;2022-12-07T05:29:03;5.97;;;4.57;;
8978;SDS011;4524;51.364;5.448;2022-12-07T05:31:32;6.10;;;4.80;;
8978;SDS011;4524;51.364;5.448;2022-12-07T05:34:00;10.27;;;5.10;;
8978;SDS011;4524;51.364;5.448;2022-12-07T05:36:28;9.60;;;5.30;;
8978;SDS011;4524;51.364;5.448;2022-12-07T05:38:58;8.37;;;3.63;;
8978;SDS011;4524;51.364;5.448;2022-12-07T05:41:26;6.23;;;4.30;;
8978;SDS011;4524;51.364;5.448;2022-12-07T05:44:13;6.33;;;4.50;;
8978;SDS011;4524;51.364;5.448;2022-12-07T05:46:41;6.83;;;4.00;;
8978;SDS011;4524;51.364;5.448;2022-12-07T05:49:09;7.27;;;3.30;;
8978;SDS011;4524;51.364;5.448;2022-12-07T05:51:37;8.10;;;3.63;;
8978;SDS011;4524;51.364;5.448;2022-12-07T05:54:04;7.93;;;4.80;;
8978;SDS011;4524;51.364;5.448;2022-12-07T05:56:32;7.83;;;5.20;;
8978;SDS011;4524;51.364;5.448;2022-12-07T05:59:00;6.67;;;3.63;;
8978;SDS011;4524;51.364;5.448;2022-12-07T06:01:47;6.20;;;4.50;;
8978;SDS011;4524;51.364;5.448;2022-12-07T06:04:16;6.80;;;3.90;;
8978;SDS011;4524;51.364;5.448;2022-12-07T06:06:44;7.80;;;3.37;;
8978;SDS011;4524;51.364;5.448;2022-12-07T06:09:12;6.10;;;3.37;;
8978;SDS011;4524;51.364;5.448;2022-12-07T06:11:40;7.47;;;4.20;;
8978;SDS011;4524;51.364;5.448;2022-12-07T06:14:26;6.97;;;3.53;;
8978;SDS011;4524;51.364;5.448;2022-12-07T06:16:55;9.20;;;4.60;;
8978;SDS011;4524;51.364;5.448;2022-12-07T06:19:23;5.60;;;3.73;;
8978;SDS011;4524;51.364;5.448;2022-12-07T06:21:51;10.03;;;4.57;;
8978;SDS011;4524;51.364;5.448;2022-12-07T06:24:20;9.67;;;5.20;;
8978;SDS011;4524;51.364;5.448;2022-12-07T06:26:48;7.47;;;4.50;;
8978;SDS011;4524;51.364;5.448;2022-12-07T06:29:16;8.17;;;4.50;;
8978;SDS011;4524;51.364;5.448;2022-12-07T06:31:45;5.80;;;4.57;;
8978;SDS011;4524;51.364;5.448;2022-12-07T06:34:15;8.80;;;5.40;;
8978;SDS011;4524;51.364;5.448;2022-12-07T06:36:45;9.40;;;5.13;;
8978;SDS011;4524;51.364;5.448;2022-12-07T06:39:17;9.17;;;5.37;;
8978;SDS011;4524;51.364;5.448;2022-12-07T06:41:45;8.53;;;5.47;;
8978;SDS011;4524;51.364;5.448;2022-12-07T06:44:13;9.30;;;5.83;;
8978;SDS011;4524;51.364;5.448;2022-12-07T06:46:41;7.87;;;6.03;;
8978;SDS011;4524;51.364;5.448;2022-12-07T06:49:09;9.60;;;6.27;;
8978;SDS011;4524;51.364;5.448;2022-12-07T06:51:39;9.60;;;6.00;;
8978;SDS011;4524;51.364;5.448;2022-12-07T06:54:08;10.13;;;6.60;;
8978;SDS011;4524;51.364;5.448;2022-12-07T06:56:37;11.33;;;7.37;;
8978;SDS011;4524;51.364;5.448;2022-12-07T06:59:05;8.93;;;6.57;;
8978;SDS011;4524;51.364;5.448;2022-12-07T07:01:34;12.40;;;7.63;;
8978;SDS011;4524;51.364;5.448;2022-12-07T07:04:03;9.57;;;7.03;;
8978;SDS011;4524;51.364;5.448;2022-12-07T07:06:31;9.77;;;7.10;;
8978;SDS011;4524;51.364;5.448;2022-12-07T07:09:00;13.27;;;8.67;;
8978;SDS011;4524;51.364;5.448;2022-12-07T07:11:28;12.07;;;8.33;;
8978;SDS011;4524;51.364;5.448;2022-12-07T07:13:56;13.80;;;8.50;;
8978;SDS011;4524;51.364;5.448;2022-12-07T07:16:28;11.53;;;8.00;;
8978;SDS011;4524;51.364;5.448;2022-12-07T07:18:57;11.10;;;7.67;;
8978;SDS011;4524;51.364;5.448;2022-12-07T07:21:25;12.33;;;8.17;;
8978;SDS011;4524;51.364;5.448;2022-12-07T07:23:53;11.90;;;8.37;;
8978;SDS011;4524;51.364;5.448;2022-12-07T07:26:22;10.40;;;8.33;;
8978;SDS011;4524;51.364;5.448;2022-12-07T07:28:50;15.50;;;8.07;;
8978;SDS011;4524;51.364;5.448;2022-12-07T07:31:18;8.63;;;6.27;;
8978;SDS011;4524;51.364;5.448;2022-12-07T07:33:46;12.27;;;7.97;;
8978;SDS011;4524;51.364;5.448;2022-12-07T07:36:14;12.07;;;8.07;;
8978;SDS011;4524;51.364;5.448;2022-12-07T07:38:42;10.10;;;7.33;;
8978;SDS011;4524;51.364;5.448;2022-12-07T07:41:10;11.17;;;7.63;;
8978;SDS011;4524;51.364;5.448;2022-12-07T07:43:39;9.27;;;7.20;;
8978;SDS011;4524;51.364;5.448;2022-12-07T07:46:07;11.93;;;7.80;;
8978;SDS011;4524;51.364;5.448;2022-12-07T07:48:35;10.73;;;7.50;;
8978;SDS011;4524;51.364;5.448;2022-12-07T07:51:04;15.50;;;7.63;;
8978;SDS011;4524;51.364;5.448;2022-12-07T07:53:33;10.50;;;8.30;;
8978;SDS011;4524;51.364;5.448;2022-12-07T07:56:02;14.63;;;7.90;;
8978;SDS011;4524;51.364;5.448;2022-12-07T07:58:30;11.57;;;7.80;;
8978;SDS011;4524;51.364;5.448;2022-12-07T08:01:04;11.40;;;7.77;;
8978;SDS011;4524;51.364;5.448;2022-12-07T08:03:33;14.43;;;7.97;;
8978;SDS011;4524;51.364;5.448;2022-12-07T08:06:01;10.80;;;7.30;;
8978;SDS011;4524;51.364;5.448;2022-12-07T08:08:29;10.17;;;7.07;;
8978;SDS011;4524;51.364;5.448;2022-12-07T08:10:57;13.77;;;8.90;;
8978;SDS011;4524;51.364;5.448;2022-12-07T08:13:27;12.90;;;8.03;;
8978;SDS011;4524;51.364;5.448;2022-12-07T08:15:57;14.50;;;8.73;;
8978;SDS011;4524;51.364;5.448;2022-12-07T08:18:26;10.10;;;8.23;;
8978;SDS011;4524;51.364;5.448;2022-12-07T08:20:58;12.97;;;8.50;;
8978;SDS011;4524;51.364;5.448;2022-12-07T08:23:27;9.40;;;7.07;;
8978;SDS011;4524;51.364;5.448;2022-12-07T08:26:05;10.40;;;7.47;;
8978;SDS011;4524;51.364;5.448;2022-12-07T08:28:40;9.43;;;6.73;;
8978;SDS011;4524;51.364;5.448;2022-12-07T08:31:10;13.00;;;7.43;;
8978;SDS011;4524;51.364;5.448;2022-12-07T08:33:41;11.80;;;7.67;;
8978;SDS011;4524;51.364;5.448;2022-12-07T08:36:11;14.43;;;8.37;;
8978;SDS011;4524;51.364;5.448;2022-12-07T08:38:40;10.03;;;7.60;;
8978;SDS011;4524;51.364;5.448;2022-12-07T08:41:28;11.17;;;6.67;;
8978;SDS011;4524;51.364;5.448;2022-12-07T08:43:57;8.50;;;6.03;;
8978;SDS011;4524;51.364;5.448;2022-12-07T08:46:25;9.67;;;6.53;;
8978;SDS011;4524;51.364;5.448;2022-12-07T08:49:03;11.23;;;7.10;;
8978;SDS011;4524;51.364;5.448;2022-12-07T08:51:35;12.33;;;7.43;;
8978;SDS011;4524;51.364;5.448;2022-12-07T08:54:04;15.07;;;7.10;;
8978;SDS011;4524;51.364;5.448;2022-12-07T08:56:36;11.40;;;7.10;;
8978;SDS011;4524;51.364;5.448;2022-12-07T08:59:04;11.50;;;6.87;;
8978;SDS011;4524;51.364;5.448;2022-12-07T09:01:33;12.87;;;7.50;;
8978;SDS011;4524;51.364;5.448;2022-12-07T09:04:02;9.70;;;6.13;;
8978;SDS011;4524;51.364;5.448;2022-12-07T09:06:30;10.93;;;6.23;;
8978;SDS011;4524;51.364;5.448;2022-12-07T09:08:59;12.63;;;6.90;;
8978;SDS011;4524;51.364;5.448;2022-12-07T09:11:28;9.00;;;6.40;;
8978;SDS011;4524;51.364;5.448;2022-12-07T09:13:56;9.80;;;6.33;;
8978;SDS011;4524;51.364;5.448;2022-12-07T09:16:24;7.43;;;6.00;;
8978;SDS011;4524;51.364;5.448;2022-12-07T09:18:52;9.87;;;6.80;;
8978;SDS011;4524;51.364;5.448;2022-12-07T09:21:22;11.57;;;6.40;;
8978;SDS011;4524;51.364;5.448;2022-12-07T09:23:50;8.70;;;5.67;;
8978;SDS011;4524;51.364;5.448;2022-12-07T09:26:18;9.43;;;6.80;;
8978;SDS011;4524;51.364;5.448;2022-12-07T09:28:46;9.87;;;6.53;;
8978;SDS011;4524;51.364;5.448;2022-12-07T09:31:14;9.33;;;5.70;;
8978;SDS011;4524;51.364;5.448;2022-12-07T09:33:54;9.53;;;5.80;;
8978;SDS011;4524;51.364;5.448;2022-12-07T09:36:24;10.63;;;6.50;;
8978;SDS011;4524;51.364;5.448;2022-12-07T09:38:52;8.70;;;5.60;;
8978;SDS011;4524;51.364;5.448;2022-12-07T09:41:20;12.90;;;5.90;;
8978;SDS011;4524;51.364;5.448;2022-12-07T09:43:49;10.53;;;5.80;;
8978;SDS011;4524;51.364;5.448;2022-12-07T09:46:18;10.30;;;5.27;;
8978;SDS011;4524;51.364;5.448;2022-12-07T09:48:48;7.93;;;5.47;;
8978;SDS011;4524;51.364;5.448;2022-12-07T09:51:18;10.10;;;5.90;;
8978;SDS011;4524;51.364;5.448;2022-12-07T09:53:52;8.23;;;6.40;;
8978;SDS011;4524;51.364;5.448;2022-12-07T09:56:22;10.80;;;5.57;;
8978;SDS011;4524;51.364;5.448;2022-12-07T09:58:51;8.70;;;6.03;;
8978;SDS011;4524;51.364;5.448;2022-12-07T10:01:28;10.77;;;6.23;;
8978;SDS011;4524;51.364;5.448;2022-12-07T10:04:05;8.27;;;5.60;;
8978;SDS011;4524;51.364;5.448;2022-12-07T10:06:37;8.87;;;5.83;;
8978;SDS011;4524;51.364;5.448;2022-12-07T10:09:10;11.67;;;6.77;;
8978;SDS011;4524;51.364;5.448;2022-12-07T10:11:58;7.97;;;5.60;;
8978;SDS011;4524;51.364;5.448;2022-12-07T10:14:32;7.40;;;5.90;;
8978;SDS011;4524;51.364;5.448;2022-12-07T10:17:29;10.57;;;6.33;;
8978;SDS011;4524;51.364;5.448;2022-12-07T10:20:15;8.27;;;5.70;;
8978;SDS011;4524;51.364;5.448;2022-12-07T10:22:56;8.97;;;6.60;;
8978;SDS011;4524;51.364;5.448;2022-12-07T10:25:32;9.40;;;5.73;;
8978;SDS011;4524;51.364;5.448;2022-12-07T10:28:02;8.73;;;6.27;;
8978;SDS011;4524;51.364;5.448;2022-12-07T10:30:45;11.07;;;6.30;;
8978;SDS011;4524;51.364;5.448;2022-12-07T10:33:35;8.70;;;5.60;;
8978;SDS011;4524;51.364;5.448;2022-12-07T10:38:52;7.17;;;5.37;;
8978;SDS011;4524;51.364;5.448;2022-12-07T10:41:26;9.03;;;5.20;;
8978;SDS011;4524;51.364;5.448;2022-12-07T10:43:56;8.80;;;5.20;;
8978;SDS011;4524;51.364;5.448;2022-12-07T10:46:46;8.43;;;4.87;;
8978;SDS011;4524;51.364;5.448;2022-12-07T10:49:29;9.70;;;4.87;;
8978;SDS011;4524;51.364;5.448;2022-12-07T10:55:16;12.93;;;5.17;;
8978;SDS011;4524;51.364;5.448;2022-12-07T10:57:59;9.13;;;5.27;;
8978;SDS011;4524;51.364;5.448;2022-12-07T11:00:45;8.50;;;5.43;;
8978;SDS011;4524;51.364;5.448;2022-12-07T11:06:11;8.40;;;5.40;;
8978;SDS011;4524;51.364;5.448;2022-12-07T11:08:53;8.53;;;5.10;;
8978;SDS011;4524;51.364;5.448;2022-12-07T11:11:32;11.47;;;5.60;;
8978;SDS011;4524;51.364;5.448;2022-12-07T11:14:05;7.47;;;4.90;;
8978;SDS011;4524;51.364;5.448;2022-12-07T11:16:46;13.43;;;5.27;;
8978;SDS011;4524;51.364;5.448;2022-12-07T11:19:34;7.33;;;4.77;;
8978;SDS011;4524;51.364;5.448;2022-12-07T11:22:19;10.17;;;4.67;;
8978;SDS011;4524;51.364;5.448;2022-12-07T11:24:54;11.27;;;4.80;;
8978;SDS011;4524;51.364;5.448;2022-12-07T11:27:30;6.93;;;4.70;;
8978;SDS011;4524;51.364;5.448;2022-12-07T11:30:13;10.50;;;4.60;;
8978;SDS011;4524;51.364;5.448;2022-12-07T11:32:55;7.33;;;4.40;;
8978;SDS011;4524;51.364;5.448;2022-12-07T11:35:35;5.70;;;3.60;;
8978;SDS011;4524;51.364;5.448;2022-12-07T11:38:09;8.33;;;3.60;;
8978;SDS011;4524;51.364;5.448;2022-12-07T11:40:43;10.53;;;3.70;;
8978;SDS011;4524;51.364;5.448;2022-12-07T11:43:14;8.33;;;3.70;;
8978;SDS011;4524;51.364;5.448;2022-12-07T11:45:52;6.33;;;3.63;;
8978;SDS011;4524;51.364;5.448;2022-12-07T11:48:29;7.40;;;3.80;;
8978;SDS011;4524;51.364;5.448;2022-12-07T11:51:00;9.97;;;3.90;;
8978;SDS011;4524;51.364;5.448;2022-12-07T11:53:32;7.57;;;3.40;;
8978;SDS011;4524;51.364;5.448;2022-12-07T11:56:07;7.77;;;3.60;;
8978;SDS011;4524;51.364;5.448;2022-12-07T11:58:48;6.83;;;3.20;;
8978;SDS011;4524;51.364;5.448;2022-12-07T12:04:16;8.13;;;3.80;;
8978;SDS011;4524;51.364;5.448;2022-12-07T12:06:59;9.03;;;3.87;;
8978;SDS011;4524;51.364;5.448;2022-12-07T12:09:49;6.07;;;3.53;;
8978;SDS011;4524;51.364;5.448;2022-12-07T12:12:24;7.37;;;3.50;;
8978;SDS011;4524;51.364;5.448;2022-12-07T12:15:28;6.23;;;3.20;;
8978;SDS011;4524;51.364;5.448;2022-12-07T12:18:15;8.13;;;3.27;;
8978;SDS011;4524;51.364;5.448;2022-12-07T12:21:02;5.73;;;3.07;;
8978;SDS011;4524;51.364;5.448;2022-12-07T12:23:36;6.27;;;3.50;;
8978;SDS011;4524;51.364;5.448;2022-12-07T12:26:13;6.90;;;3.07;;
8978;SDS011;4524;51.364;5.448;2022-12-07T12:28:49;7.43;;;3.23;;
8978;SDS011;4524;51.364;5.448;2022-12-07T12:31:32;5.13;;;2.93;;
8978;SDS011;4524;51.364;5.448;2022-12-07T12:34:10;6.07;;;2.67;;
8978;SDS011;4524;51.364;5.448;2022-12-07T12:37:00;6.20;;;2.80;;
8978;SDS011;4524;51.364;5.448;2022-12-07T12:39:29;6.50;;;3.20;;
8978;SDS011;4524;51.364;5.448;2022-12-07T12:41:58;4.20;;;2.63;;
8978;SDS011;4524;51.364;5.448;2022-12-07T12:47:41;7.90;;;2.83;;
8978;SDS011;4524;51.364;5.448;2022-12-07T12:50:20;10.13;;;2.50;;
8978;SDS011;4524;51.364;5.448;2022-12-07T12:53:05;8.97;;;2.93;;
8978;SDS011;4524;51.364;5.448;2022-12-07T12:55:49;8.00;;;2.40;;
8978;SDS011;4524;51.364;5.448;2022-12-07T12:58:38;6.90;;;2.63;;
8978;SDS011;4524;51.364;5.448;2022-12-07T13:04:17;4.60;;;2.20;;
8978;SDS011;4524;51.364;5.448;2022-12-07T13:06:51;7.33;;;2.70;;
8978;SDS011;4524;51.364;5.448;2022-12-07T13:09:21;5.27;;;2.77;;
8978;SDS011;4524;51.364;5.448;2022-12-07T13:11:55;4.83;;;2.50;;
8978;SDS011;4524;51.364;5.448;2022-12-07T13:14:42;8.13;;;2.40;;
8978;SDS011;4524;51.364;5.448;2022-12-07T13:23:26;6.87;;;2.57;;
8978;SDS011;4524;51.364;5.448;2022-12-07T13:26:00;5.23;;;2.20;;
8978;SDS011;4524;51.364;5.448;2022-12-07T13:28:43;3.77;;;2.27;;
8978;SDS011;4524;51.364;5.448;2022-12-07T13:31:14;5.90;;;2.67;;
8978;SDS011;4524;51.364;5.448;2022-12-07T13:33:50;6.80;;;2.87;;
8978;SDS011;4524;51.364;5.448;2022-12-07T13:36:19;5.50;;;2.63;;
8978;SDS011;4524;51.364;5.448;2022-12-07T13:38:51;5.87;;;2.60;;
8978;SDS011;4524;51.364;5.448;2022-12-07T13:41:21;5.80;;;2.57;;
8978;SDS011;4524;51.364;5.448;2022-12-07T13:43:52;6.17;;;2.70;;
8978;SDS011;4524;51.364;5.448;2022-12-07T13:46:27;4.93;;;2.60;;
8978;SDS011;4524;51.364;5.448;2022-12-07T13:49:01;6.47;;;2.87;;
8978;SDS011;4524;51.364;5.448;2022-12-07T13:51:33;5.03;;;2.70;;
8978;SDS011;4524;51.364;5.448;2022-12-07T13:54:09;4.87;;;2.80;;
8978;SDS011;4524;51.364;5.448;2022-12-07T13:56:39;6.23;;;2.70;;
8978;SDS011;4524;51.364;5.448;2022-12-07T13:59:10;8.33;;;2.87;;
8978;SDS011;4524;51.364;5.448;2022-12-07T14:01:41;6.68;;;2.97;;
8978;SDS011;4524;51.364;5.448;2022-12-07T14:04:16;6.93;;;2.97;;
8978;SDS011;4524;51.364;5.448;2022-12-07T14:06:49;6.83;;;3.00;;
8978;SDS011;4524;51.364;5.448;2022-12-07T14:09:19;4.80;;;2.63;;
8978;SDS011;4524;51.364;5.448;2022-12-07T14:11:49;4.53;;;2.60;;
8978;SDS011;4524;51.364;5.448;2022-12-07T14:14:20;3.67;;;2.30;;
8978;SDS011;4524;51.364;5.448;2022-12-07T14:16:59;5.33;;;2.83;;
8978;SDS011;4524;51.364;5.448;2022-12-07T14:19:49;5.67;;;2.67;;
8978;SDS011;4524;51.364;5.448;2022-12-07T14:22:25;4.20;;;2.60;;
8978;SDS011;4524;51.364;5.448;2022-12-07T14:25:00;5.37;;;2.60;;
8978;SDS011;4524;51.364;5.448;2022-12-07T14:27:39;6.60;;;2.70;;
8978;SDS011;4524;51.364;5.448;2022-12-07T14:30:14;5.33;;;2.53;;
8978;SDS011;4524;51.364;5.448;2022-12-07T14:32:44;5.20;;;3.13;;
8978;SDS011;4524;51.364;5.448;2022-12-07T14:35:20;7.97;;;2.87;;
8978;SDS011;4524;51.364;5.448;2022-12-07T14:37:49;5.53;;;2.80;;
8978;SDS011;4524;51.364;5.448;2022-12-07T14:40:19;6.33;;;2.83;;
8978;SDS011;4524;51.364;5.448;2022-12-07T14:42:49;4.83;;;3.20;;
8978;SDS011;4524;51.364;5.448;2022-12-07T14:45:20;4.27;;;2.60;;
8978;SDS011;4524;51.364;5.448;2022-12-07T14:47:49;7.87;;;2.97;;
8978;SDS011;4524;51.364;5.448;2022-12-07T14:50:38;6.57;;;3.00;;
8978;SDS011;4524;51.364;5.448;2022-12-07T14:53:29;4.77;;;2.90;;
8978;SDS011;4524;51.364;5.448;2022-12-07T14:56:00;6.63;;;2.90;;
8978;SDS011;4524;51.364;5.448;2022-12-07T14:58:28;3.57;;;2.73;;
8978;SDS011;4524;51.364;5.448;2022-12-07T15:00:56;7.20;;;2.83;;
8978;SDS011;4524;51.364;5.448;2022-12-07T15:03:24;7.17;;;2.77;;
8978;SDS011;4524;51.364;5.448;2022-12-07T15:05:52;5.03;;;2.50;;
8978;SDS011;4524;51.364;5.448;2022-12-07T15:08:20;5.53;;;3.10;;
8978;SDS011;4524;51.364;5.448;2022-12-07T15:10:48;6.77;;;2.60;;
8978;SDS011;4524;51.364;5.448;2022-12-07T15:13:17;5.77;;;2.33;;
8978;SDS011;4524;51.364;5.448;2022-12-07T15:16:04;4.43;;;2.50;;
8978;SDS011;4524;51.364;5.448;2022-12-07T15:18:35;4.90;;;2.40;;
8978;SDS011;4524;51.364;5.448;2022-12-07T15:21:03;9.30;;;2.30;;
8978;SDS011;4524;51.364;5.448;2022-12-07T15:23:31;4.33;;;2.33;;
8978;SDS011;4524;51.364;5.448;2022-12-07T15:25:59;4.37;;;2.43;;
8978;SDS011;4524;51.364;5.448;2022-12-07T15:28:28;4.63;;;2.73;;
8978;SDS011;4524;51.364;5.448;2022-12-07T15:30:56;4.47;;;2.20;;
8978;SDS011;4524;51.364;5.448;2022-12-07T15:33:44;6.17;;;2.63;;
8978;SDS011;4524;51.364;5.448;2022-12-07T15:36:15;5.70;;;2.50;;
8978;SDS011;4524;51.364;5.448;2022-12-07T15:38:47;6.97;;;2.40;;
8978;SDS011;4524;51.364;5.448;2022-12-07T15:41:35;4.23;;;2.33;;
8978;SDS011;4524;51.364;5.448;2022-12-07T15:44:04;4.57;;;2.37;;
8978;SDS011;4524;51.364;5.448;2022-12-07T15:46:56;3.83;;;2.53;;
8978;SDS011;4524;51.364;5.448;2022-12-07T15:49:24;3.93;;;2.70;;
8978;SDS011;4524;51.364;5.448;2022-12-07T15:51:53;4.93;;;2.90;;
8978;SDS011;4524;51.364;5.448;2022-12-07T15:54:22;4.37;;;2.73;;
8978;SDS011;4524;51.364;5.448;2022-12-07T15:56:52;4.90;;;2.57;;
8978;SDS011;4524;51.364;5.448;2022-12-07T15:59:22;3.27;;;2.40;;
8978;SDS011;4524;51.364;5.448;2022-12-07T16:01:50;5.37;;;2.50;;
8978;SDS011;4524;51.364;5.448;2022-12-07T16:04:18;4.00;;;3.10;;
8978;SDS011;4524;51.364;5.448;2022-12-07T16:06:46;3.73;;;2.40;;
8978;SDS011;4524;51.364;5.448;2022-12-07T16:09:14;4.77;;;2.73;;